sensor_id;sensor_type;location;lat;lon;timestamp;temperature;humidity
56256;DHT22;57229;51.432;-2.598;2022-10-31T00:00:45;17.60;99.90
56256;DHT22;57229;51.432;-2.598;2022-10-31T00:03:12;17.60;99.90
56256;DHT22;57229;51.432;-2.598;2022-10-31T00:05:49;17.60;99.90
56256;DHT22;57229;51.432;-2.598;2022-10-31T00:08:15;17.60;99.90
56256;DHT22;57229;51.432;-2.598;2022-10-31T00:10:43;17.60;99.90
56256;DHT22;57229;51.432;-2.598;2022-10-31T00:13:10;17.60;99.90
56256;DHT22;57229;51.432;-2.598;2022-10-31T00:15:39;17.60;99.90
56256;DHT22;57229;51.432;-2.598;2022-10-31T00:18:07;17.60;99.90
56256;DHT22;57229;51.432;-2.598;2022-10-31T00:20:36;17.60;99.90
56256;DHT22;57229;51.432;-2.598;2022-10-31T00:36:02;17.60;99.90
56256;DHT22;57229;51.432;-2.598;2022-10-31T00:38:27;17.60;99.90
56256;DHT22;57229;51.432;-2.598;2022-10-31T00:40:53;17.60;99.90
56256;DHT22;57229;51.432;-2.598;2022-10-31T00:43:19;17.70;99.90
56256;DHT22;57229;51.432;-2.598;2022-10-31T00:45:45;17.70;99.90
56256;DHT22;57229;51.432;-2.598;2022-10-31T00:48:10;17.70;99.90
56256;DHT22;57229;51.432;-2.598;2022-10-31T00:50:47;17.70;99.90
56256;DHT22;57229;51.432;-2.598;2022-10-31T01:00:05;17.70;99.90
56256;DHT22;57229;51.432;-2.598;2022-10-31T01:02:34;17.60;99.90
56256;DHT22;57229;51.432;-2.598;2022-10-31T01:05:06;17.60;99.90
56256;DHT22;57229;51.432;-2.598;2022-10-31T01:07:36;17.60;99.90
56256;DHT22;57229;51.432;-2.598;2022-10-31T01:10:14;17.60;99.90
56256;DHT22;57229;51.432;-2.598;2022-10-31T01:13:14;17.60;99.90
56256;DHT22;57229;51.432;-2.598;2022-10-31T01:15:54;17.60;99.90
56256;DHT22;57229;51.432;-2.598;2022-10-31T01:24:50;17.60;99.90
56256;DHT22;57229;51.432;-2.598;2022-10-31T01:28:32;17.60;99.90
56256;DHT22;57229;51.432;-2.598;2022-10-31T01:31:03;17.60;99.90
56256;DHT22;57229;51.432;-2.598;2022-10-31T01:33:29;17.60;99.90
56256;DHT22;57229;51.432;-2.598;2022-10-31T01:36:25;17.60;99.90
56256;DHT22;57229;51.432;-2.598;2022-10-31T01:38:52;17.60;99.90
56256;DHT22;57229;51.432;-2.598;2022-10-31T01:41:21;17.60;99.90
56256;DHT22;57229;51.432;-2.598;2022-10-31T01:43:49;17.60;99.90
56256;DHT22;57229;51.432;-2.598;2022-10-31T01:46:19;17.60;99.90
56256;DHT22;57229;51.432;-2.598;2022-10-31T01:48:46;17.60;99.90
56256;DHT22;57229;51.432;-2.598;2022-10-31T01:51:15;17.60;99.90
56256;DHT22;57229;51.432;-2.598;2022-10-31T01:53:43;17.60;99.90
56256;DHT22;57229;51.432;-2.598;2022-10-31T01:56:10;17.60;99.90
56256;DHT22;57229;51.432;-2.598;2022-10-31T01:58:37;17.60;99.90
56256;DHT22;57229;51.432;-2.598;2022-10-31T02:01:03;17.60;99.90
56256;DHT22;57229;51.432;-2.598;2022-10-31T02:03:29;17.60;99.90
56256;DHT22;57229;51.432;-2.598;2022-10-31T02:05:55;17.60;99.90
56256;DHT22;57229;51.432;-2.598;2022-10-31T02:08:29;17.70;99.90
56256;DHT22;57229;51.432;-2.598;2022-10-31T02:10:59;17.60;99.90
56256;DHT22;57229;51.432;-2.598;2022-10-31T02:13:26;17.70;99.90
56256;DHT22;57229;51.432;-2.598;2022-10-31T02:15:56;17.60;99.90
56256;DHT22;57229;51.432;-2.598;2022-10-31T02:18:23;17.60;99.90
56256;DHT22;57229;51.432;-2.598;2022-10-31T02:23:43;17.70;99.90
56256;DHT22;57229;51.432;-2.598;2022-10-31T02:26:19;17.60;99.90
56256;DHT22;57229;51.432;-2.598;2022-10-31T02:32:03;17.60;99.90
56256;DHT22;57229;51.432;-2.598;2022-10-31T02:34:41;17.60;99.90
56256;DHT22;57229;51.432;-2.598;2022-10-31T02:37:16;17.60;99.90
56256;DHT22;57229;51.432;-2.598;2022-10-31T02:45:49;17.60;99.90
56256;DHT22;57229;51.432;-2.598;2022-10-31T02:48:19;17.60;99.90
56256;DHT22;57229;51.432;-2.598;2022-10-31T02:50:52;17.60;99.90
56256;DHT22;57229;51.432;-2.598;2022-10-31T02:53:18;17.60;99.90
56256;DHT22;57229;51.432;-2.598;2022-10-31T02:56:15;17.60;99.90
56256;DHT22;57229;51.432;-2.598;2022-10-31T02:58:55;17.60;99.90
56256;DHT22;57229;51.432;-2.598;2022-10-31T03:02:03;17.60;99.90
56256;DHT22;57229;51.432;-2.598;2022-10-31T03:07:57;17.60;99.90
56256;DHT22;57229;51.432;-2.598;2022-10-31T03:15:49;17.60;99.90
56256;DHT22;57229;51.432;-2.598;2022-10-31T03:21:41;17.60;99.90
56256;DHT22;57229;51.432;-2.598;2022-10-31T03:24:14;17.60;99.90
56256;DHT22;57229;51.432;-2.598;2022-10-31T03:27:02;17.60;99.90
56256;DHT22;57229;51.432;-2.598;2022-10-31T03:29:54;17.60;99.90
56256;DHT22;57229;51.432;-2.598;2022-10-31T03:32:42;17.50;99.90
56256;DHT22;57229;51.432;-2.598;2022-10-31T03:35:10;17.50;99.90
56256;DHT22;57229;51.432;-2.598;2022-10-31T03:37:40;17.50;99.90
56256;DHT22;57229;51.432;-2.598;2022-10-31T03:40:09;17.50;99.90
56256;DHT22;57229;51.432;-2.598;2022-10-31T03:42:43;17.50;99.90
56256;DHT22;57229;51.432;-2.598;2022-10-31T03:45:21;17.50;99.90
56256;DHT22;57229;51.432;-2.598;2022-10-31T03:47:48;17.50;99.90
56256;DHT22;57229;51.432;-2.598;2022-10-31T03:50:15;17.50;99.90
56256;DHT22;57229;51.432;-2.598;2022-10-31T03:53:22;17.50;99.90
56256;DHT22;57229;51.432;-2.598;2022-10-31T03:55:55;17.50;99.90
56256;DHT22;57229;51.432;-2.598;2022-10-31T03:58:25;17.40;99.90
56256;DHT22;57229;51.432;-2.598;2022-10-31T04:00:54;17.40;99.90
56256;DHT22;57229;51.432;-2.598;2022-10-31T04:03:28;17.40;99.90
56256;DHT22;57229;51.432;-2.598;2022-10-31T04:05:59;17.40;99.90
56256;DHT22;57229;51.432;-2.598;2022-10-31T04:08:54;17.40;99.90
56256;DHT22;57229;51.432;-2.598;2022-10-31T04:11:25;17.40;99.90
56256;DHT22;57229;51.432;-2.598;2022-10-31T04:13:55;17.40;99.90
56256;DHT22;57229;51.432;-2.598;2022-10-31T04:16:26;17.40;99.90
56256;DHT22;57229;51.432;-2.598;2022-10-31T04:18:53;17.40;99.90
56256;DHT22;57229;51.432;-2.598;2022-10-31T04:21:19;17.40;99.90
56256;DHT22;57229;51.432;-2.598;2022-10-31T04:23:55;17.40;99.90
56256;DHT22;57229;51.432;-2.598;2022-10-31T04:26:30;17.40;99.90
56256;DHT22;57229;51.432;-2.598;2022-10-31T04:28:55;17.40;99.90
56256;DHT22;57229;51.432;-2.598;2022-10-31T04:31:21;17.40;99.90
56256;DHT22;57229;51.432;-2.598;2022-10-31T04:33:50;17.40;99.90
56256;DHT22;57229;51.432;-2.598;2022-10-31T04:36:17;17.40;99.90
56256;DHT22;57229;51.432;-2.598;2022-10-31T04:38:43;17.40;99.90
56256;DHT22;57229;51.432;-2.598;2022-10-31T04:41:08;17.40;99.90
56256;DHT22;57229;51.432;-2.598;2022-10-31T04:43:34;17.30;99.90
56256;DHT22;57229;51.432;-2.598;2022-10-31T04:46:00;17.30;99.90
56256;DHT22;57229;51.432;-2.598;2022-10-31T04:48:27;17.30;99.90
56256;DHT22;57229;51.432;-2.598;2022-10-31T04:50:57;17.30;99.90
56256;DHT22;57229;51.432;-2.598;2022-10-31T04:53:37;17.30;99.90
56256;DHT22;57229;51.432;-2.598;2022-10-31T04:56:02;17.30;99.90
56256;DHT22;57229;51.432;-2.598;2022-10-31T04:58:29;17.30;99.90
56256;DHT22;57229;51.432;-2.598;2022-10-31T05:03:59;17.30;99.90
56256;DHT22;57229;51.432;-2.598;2022-10-31T05:06:25;17.30;99.90
56256;DHT22;57229;51.432;-2.598;2022-10-31T05:08:50;17.30;99.90
56256;DHT22;57229;51.432;-2.598;2022-10-31T05:11:16;17.30;99.90
56256;DHT22;57229;51.432;-2.598;2022-10-31T05:13:42;17.30;99.90
56256;DHT22;57229;51.432;-2.598;2022-10-31T05:16:07;17.30;99.90
56256;DHT22;57229;51.432;-2.598;2022-10-31T05:18:33;17.30;99.90
56256;DHT22;57229;51.432;-2.598;2022-10-31T05:20:59;17.30;99.90
56256;DHT22;57229;51.432;-2.598;2022-10-31T05:23:24;17.30;99.90
56256;DHT22;57229;51.432;-2.598;2022-10-31T05:25:50;17.30;99.90
56256;DHT22;57229;51.432;-2.598;2022-10-31T05:28:16;17.30;99.90
56256;DHT22;57229;51.432;-2.598;2022-10-31T05:30:42;17.20;99.90
56256;DHT22;57229;51.432;-2.598;2022-10-31T05:33:08;17.30;99.90
56256;DHT22;57229;51.432;-2.598;2022-10-31T05:35:33;17.30;99.90
56256;DHT22;57229;51.432;-2.598;2022-10-31T05:37:59;17.20;99.90
56256;DHT22;57229;51.432;-2.598;2022-10-31T05:40:26;17.20;99.90
56256;DHT22;57229;51.432;-2.598;2022-10-31T05:42:55;17.20;99.90
56256;DHT22;57229;51.432;-2.598;2022-10-31T05:45:41;17.20;99.90
56256;DHT22;57229;51.432;-2.598;2022-10-31T05:48:31;17.20;99.90
56256;DHT22;57229;51.432;-2.598;2022-10-31T05:51:06;17.20;99.90
56256;DHT22;57229;51.432;-2.598;2022-10-31T05:53:35;17.20;99.90
56256;DHT22;57229;51.432;-2.598;2022-10-31T05:56:00;17.20;99.90
56256;DHT22;57229;51.432;-2.598;2022-10-31T05:58:26;17.20;99.90
56256;DHT22;57229;51.432;-2.598;2022-10-31T06:00:53;17.20;99.90
56256;DHT22;57229;51.432;-2.598;2022-10-31T06:03:22;17.20;99.90
56256;DHT22;57229;51.432;-2.598;2022-10-31T06:05:56;17.20;99.90
56256;DHT22;57229;51.432;-2.598;2022-10-31T06:08:22;17.20;99.90
56256;DHT22;57229;51.432;-2.598;2022-10-31T06:10:47;17.20;99.90
56256;DHT22;57229;51.432;-2.598;2022-10-31T06:13:20;17.20;99.90
56256;DHT22;57229;51.432;-2.598;2022-10-31T06:15:47;17.20;99.90
56256;DHT22;57229;51.432;-2.598;2022-10-31T06:18:13;17.20;99.90
56256;DHT22;57229;51.432;-2.598;2022-10-31T06:20:39;17.20;99.90
56256;DHT22;57229;51.432;-2.598;2022-10-31T06:23:04;17.20;99.90
56256;DHT22;57229;51.432;-2.598;2022-10-31T06:28:56;17.20;99.90
56256;DHT22;57229;51.432;-2.598;2022-10-31T06:31:22;17.20;99.90
56256;DHT22;57229;51.432;-2.598;2022-10-31T06:34:13;17.20;99.90
56256;DHT22;57229;51.432;-2.598;2022-10-31T06:36:39;17.20;99.90
56256;DHT22;57229;51.432;-2.598;2022-10-31T06:39:04;17.20;99.90
56256;DHT22;57229;51.432;-2.598;2022-10-31T06:41:30;17.20;99.90
56256;DHT22;57229;51.432;-2.598;2022-10-31T06:43:56;17.20;99.90
56256;DHT22;57229;51.432;-2.598;2022-10-31T06:46:21;17.20;99.90
56256;DHT22;57229;51.432;-2.598;2022-10-31T06:48:47;17.20;99.90
56256;DHT22;57229;51.432;-2.598;2022-10-31T06:51:12;17.20;99.90
56256;DHT22;57229;51.432;-2.598;2022-10-31T06:53:38;17.20;99.90
56256;DHT22;57229;51.432;-2.598;2022-10-31T06:56:04;17.20;99.90
56256;DHT22;57229;51.432;-2.598;2022-10-31T06:58:30;17.10;99.90
56256;DHT22;57229;51.432;-2.598;2022-10-31T07:00:59;17.20;99.90
56256;DHT22;57229;51.432;-2.598;2022-10-31T07:03:24;17.20;99.90
56256;DHT22;57229;51.432;-2.598;2022-10-31T07:05:50;17.20;99.90
56256;DHT22;57229;51.432;-2.598;2022-10-31T07:08:16;17.20;99.90
56256;DHT22;57229;51.432;-2.598;2022-10-31T07:10:42;17.20;99.90
56256;DHT22;57229;51.432;-2.598;2022-10-31T07:13:13;17.20;99.90
56256;DHT22;57229;51.432;-2.598;2022-10-31T07:15:41;17.20;99.90
56256;DHT22;57229;51.432;-2.598;2022-10-31T07:18:08;17.20;99.90
56256;DHT22;57229;51.432;-2.598;2022-10-31T07:20:35;17.20;99.90
56256;DHT22;57229;51.432;-2.598;2022-10-31T07:23:00;17.20;99.90
56256;DHT22;57229;51.432;-2.598;2022-10-31T07:25:26;17.20;99.90
56256;DHT22;57229;51.432;-2.598;2022-10-31T07:27:53;17.20;99.90
56256;DHT22;57229;51.432;-2.598;2022-10-31T07:30:19;17.20;99.90
56256;DHT22;57229;51.432;-2.598;2022-10-31T07:32:47;17.20;99.90
56256;DHT22;57229;51.432;-2.598;2022-10-31T07:35:23;17.20;99.90
56256;DHT22;57229;51.432;-2.598;2022-10-31T07:37:49;17.30;99.90
56256;DHT22;57229;51.432;-2.598;2022-10-31T07:40:16;17.30;99.90
56256;DHT22;57229;51.432;-2.598;2022-10-31T07:42:43;17.30;99.90
56256;DHT22;57229;51.432;-2.598;2022-10-31T07:45:13;17.30;99.90
56256;DHT22;57229;51.432;-2.598;2022-10-31T07:47:47;17.30;99.90
56256;DHT22;57229;51.432;-2.598;2022-10-31T07:50:18;17.30;99.90
56256;DHT22;57229;51.432;-2.598;2022-10-31T07:52:44;17.30;99.90
56256;DHT22;57229;51.432;-2.598;2022-10-31T07:55:10;17.40;99.90
56256;DHT22;57229;51.432;-2.598;2022-10-31T07:57:36;17.40;99.90
56256;DHT22;57229;51.432;-2.598;2022-10-31T08:00:06;17.40;99.90
56256;DHT22;57229;51.432;-2.598;2022-10-31T08:02:32;17.40;99.90
56256;DHT22;57229;51.432;-2.598;2022-10-31T08:04:58;17.40;99.90
56256;DHT22;57229;51.432;-2.598;2022-10-31T08:07:25;17.50;99.90
56256;DHT22;57229;51.432;-2.598;2022-10-31T08:09:55;17.50;99.90
56256;DHT22;57229;51.432;-2.598;2022-10-31T08:12:23;17.50;99.90
56256;DHT22;57229;51.432;-2.598;2022-10-31T08:14:49;17.50;99.90
56256;DHT22;57229;51.432;-2.598;2022-10-31T08:17:15;17.50;99.90
56256;DHT22;57229;51.432;-2.598;2022-10-31T08:19:41;17.60;99.90
56256;DHT22;57229;51.432;-2.598;2022-10-31T08:22:06;17.60;99.90
56256;DHT22;57229;51.432;-2.598;2022-10-31T08:24:32;17.60;99.90
56256;DHT22;57229;51.432;-2.598;2022-10-31T08:26:58;17.60;99.90
56256;DHT22;57229;51.432;-2.598;2022-10-31T08:29:23;17.60;99.90
56256;DHT22;57229;51.432;-2.598;2022-10-31T08:31:49;17.60;99.90
56256;DHT22;57229;51.432;-2.598;2022-10-31T08:34:15;17.60;99.90
56256;DHT22;57229;51.432;-2.598;2022-10-31T08:36:40;17.60;99.90
56256;DHT22;57229;51.432;-2.598;2022-10-31T08:39:07;17.70;99.90
56256;DHT22;57229;51.432;-2.598;2022-10-31T08:41:33;17.60;99.90
56256;DHT22;57229;51.432;-2.598;2022-10-31T08:43:59;17.60;99.90
56256;DHT22;57229;51.432;-2.598;2022-10-31T08:46:24;17.70;99.90
56256;DHT22;57229;51.432;-2.598;2022-10-31T08:48:50;17.70;99.90
56256;DHT22;57229;51.432;-2.598;2022-10-31T08:51:16;17.60;99.90
56256;DHT22;57229;51.432;-2.598;2022-10-31T08:53:43;17.70;99.90
56256;DHT22;57229;51.432;-2.598;2022-10-31T08:56:08;17.70;99.90
56256;DHT22;57229;51.432;-2.598;2022-10-31T08:58:43;17.70;99.90
56256;DHT22;57229;51.432;-2.598;2022-10-31T09:01:09;17.70;99.90
56256;DHT22;57229;51.432;-2.598;2022-10-31T09:03:34;17.70;99.90
56256;DHT22;57229;51.432;-2.598;2022-10-31T09:06:02;17.70;99.90
56256;DHT22;57229;51.432;-2.598;2022-10-31T09:08:32;17.70;99.90
56256;DHT22;57229;51.432;-2.598;2022-10-31T09:10:59;17.70;99.90
56256;DHT22;57229;51.432;-2.598;2022-10-31T09:13:25;17.60;99.90
56256;DHT22;57229;51.432;-2.598;2022-10-31T09:15:51;17.60;99.90
56256;DHT22;57229;51.432;-2.598;2022-10-31T09:18:19;17.70;99.90
56256;DHT22;57229;51.432;-2.598;2022-10-31T09:20:46;17.60;99.90
56256;DHT22;57229;51.432;-2.598;2022-10-31T09:23:14;17.60;99.90
56256;DHT22;57229;51.432;-2.598;2022-10-31T09:25:40;17.60;99.90
56256;DHT22;57229;51.432;-2.598;2022-10-31T09:28:08;17.60;99.90
56256;DHT22;57229;51.432;-2.598;2022-10-31T09:30:36;17.60;99.90
56256;DHT22;57229;51.432;-2.598;2022-10-31T09:33:04;17.60;99.90
56256;DHT22;57229;51.432;-2.598;2022-10-31T09:35:30;17.60;99.90
56256;DHT22;57229;51.432;-2.598;2022-10-31T09:38:02;17.50;99.90
56256;DHT22;57229;51.432;-2.598;2022-10-31T09:40:55;17.60;99.90
56256;DHT22;57229;51.432;-2.598;2022-10-31T09:43:33;17.50;99.90
56256;DHT22;57229;51.432;-2.598;2022-10-31T09:49:05;17.50;99.90
56256;DHT22;57229;51.432;-2.598;2022-10-31T09:51:44;17.60;99.90
56256;DHT22;57229;51.432;-2.598;2022-10-31T09:54:16;17.60;99.90
56256;DHT22;57229;51.432;-2.598;2022-10-31T09:56:44;17.60;99.90
56256;DHT22;57229;51.432;-2.598;2022-10-31T09:59:31;17.60;99.90
56256;DHT22;57229;51.432;-2.598;2022-10-31T10:04:47;17.70;99.90
56256;DHT22;57229;51.432;-2.598;2022-10-31T10:27:26;18.70;99.90
56256;DHT22;57229;51.432;-2.598;2022-10-31T10:30:07;18.90;99.90
56256;DHT22;57229;51.432;-2.598;2022-10-31T10:32:56;19.10;99.90
56256;DHT22;57229;51.432;-2.598;2022-10-31T10:35:27;19.60;99.10
56256;DHT22;57229;51.432;-2.598;2022-10-31T10:38:14;20.10;98.20
56256;DHT22;57229;51.432;-2.598;2022-10-31T10:40:42;20.50;97.30
56256;DHT22;57229;51.432;-2.598;2022-10-31T10:49:29;20.80;96.60
56256;DHT22;57229;51.432;-2.598;2022-10-31T10:57:58;20.60;96.80
56256;DHT22;57229;51.432;-2.598;2022-10-31T11:07:09;21.40;95.40
56256;DHT22;57229;51.432;-2.598;2022-10-31T11:09:36;21.70;94.70
56256;DHT22;57229;51.432;-2.598;2022-10-31T11:12:19;21.90;94.30
56256;DHT22;57229;51.432;-2.598;2022-10-31T11:15:06;21.70;94.60
56256;DHT22;57229;51.432;-2.598;2022-10-31T11:17:36;21.40;94.90
56256;DHT22;57229;51.432;-2.598;2022-10-31T11:20:26;21.10;95.30
56256;DHT22;57229;51.432;-2.598;2022-10-31T11:29:37;20.30;96.60
56256;DHT22;57229;51.432;-2.598;2022-10-31T11:32:03;20.10;96.90
56256;DHT22;57229;51.432;-2.598;2022-10-31T11:34:32;19.90;97.20
56256;DHT22;57229;51.432;-2.598;2022-10-31T11:37:04;19.80;97.40
56256;DHT22;57229;51.432;-2.598;2022-10-31T11:39:44;19.70;97.60
56256;DHT22;57229;51.432;-2.598;2022-10-31T11:42:13;19.60;97.80
56256;DHT22;57229;51.432;-2.598;2022-10-31T11:44:42;19.50;98.00
56256;DHT22;57229;51.432;-2.598;2022-10-31T11:47:17;19.40;98.10
56256;DHT22;57229;51.432;-2.598;2022-10-31T11:49:45;19.40;98.30
56256;DHT22;57229;51.432;-2.598;2022-10-31T11:52:30;19.30;98.40
56256;DHT22;57229;51.432;-2.598;2022-10-31T11:57:49;19.30;98.70
56256;DHT22;57229;51.432;-2.598;2022-10-31T12:05:30;19.20;98.90
56256;DHT22;57229;51.432;-2.598;2022-10-31T12:07:58;19.20;99.00
56256;DHT22;57229;51.432;-2.598;2022-10-31T12:10:35;19.20;99.00
56256;DHT22;57229;51.432;-2.598;2022-10-31T12:16:09;19.30;99.00
56256;DHT22;57229;51.432;-2.598;2022-10-31T12:24:02;19.50;98.90
56256;DHT22;57229;51.432;-2.598;2022-10-31T12:26:57;19.70;98.60
56256;DHT22;57229;51.432;-2.598;2022-10-31T12:34:38;20.30;97.60
56256;DHT22;57229;51.432;-2.598;2022-10-31T12:42:45;20.60;97.00
56256;DHT22;57229;51.432;-2.598;2022-10-31T12:45:58;20.60;96.90
56256;DHT22;57229;51.432;-2.598;2022-10-31T12:51:05;20.70;96.50
56256;DHT22;57229;51.432;-2.598;2022-10-31T12:58:40;20.70;96.50
56256;DHT22;57229;51.432;-2.598;2022-10-31T13:01:21;20.80;96.50
56256;DHT22;57229;51.432;-2.598;2022-10-31T13:03:57;20.90;96.40
56256;DHT22;57229;51.432;-2.598;2022-10-31T13:06:31;21.00;96.20
56256;DHT22;57229;51.432;-2.598;2022-10-31T13:09:01;21.20;95.80
56256;DHT22;57229;51.432;-2.598;2022-10-31T13:11:32;21.30;95.60
56256;DHT22;57229;51.432;-2.598;2022-10-31T13:16:41;21.20;95.70
56256;DHT22;57229;51.432;-2.598;2022-10-31T13:19:17;21.10;96.10
56256;DHT22;57229;51.432;-2.598;2022-10-31T13:22:06;20.90;96.50
56256;DHT22;57229;51.432;-2.598;2022-10-31T13:24:42;20.80;96.90
56256;DHT22;57229;51.432;-2.598;2022-10-31T13:27:18;20.70;97.20
56256;DHT22;57229;51.432;-2.598;2022-10-31T13:30:03;20.60;97.50
56256;DHT22;57229;51.432;-2.598;2022-10-31T13:32:42;20.50;97.60
56256;DHT22;57229;51.432;-2.598;2022-10-31T13:35:21;20.50;97.90
56256;DHT22;57229;51.432;-2.598;2022-10-31T13:45:54;20.20;98.40
56256;DHT22;57229;51.432;-2.598;2022-10-31T13:48:38;20.10;98.50
56256;DHT22;57229;51.432;-2.598;2022-10-31T13:51:10;20.00;98.60
56256;DHT22;57229;51.432;-2.598;2022-10-31T13:56:22;19.90;98.80
56256;DHT22;57229;51.432;-2.598;2022-10-31T13:59:02;19.90;98.90
56256;DHT22;57229;51.432;-2.598;2022-10-31T14:01:29;19.90;98.90
56256;DHT22;57229;51.432;-2.598;2022-10-31T14:04:06;19.80;99.00
56256;DHT22;57229;51.432;-2.598;2022-10-31T14:09:19;19.70;99.20
56256;DHT22;57229;51.432;-2.598;2022-10-31T14:12:35;19.60;99.20
56256;DHT22;57229;51.432;-2.598;2022-10-31T14:15:26;19.60;99.30
56256;DHT22;57229;51.432;-2.598;2022-10-31T14:17:52;19.50;99.40
56256;DHT22;57229;51.432;-2.598;2022-10-31T14:22:45;19.40;99.40
56256;DHT22;57229;51.432;-2.598;2022-10-31T14:27:56;19.30;99.60
56256;DHT22;57229;51.432;-2.598;2022-10-31T14:30:25;19.30;99.70
56256;DHT22;57229;51.432;-2.598;2022-10-31T14:33:00;19.30;99.70
56256;DHT22;57229;51.432;-2.598;2022-10-31T14:35:46;19.20;99.80
56256;DHT22;57229;51.432;-2.598;2022-10-31T14:41:46;19.10;99.80
56256;DHT22;57229;51.432;-2.598;2022-10-31T14:44:30;19.10;99.90
56256;DHT22;57229;51.432;-2.598;2022-10-31T14:50:09;19.10;99.90
56256;DHT22;57229;51.432;-2.598;2022-10-31T14:52:37;19.00;99.90
56256;DHT22;57229;51.432;-2.598;2022-10-31T14:55:09;19.00;99.90
56256;DHT22;57229;51.432;-2.598;2022-10-31T14:57:37;19.00;99.90
56256;DHT22;57229;51.432;-2.598;2022-10-31T15:00:07;19.00;99.90
56256;DHT22;57229;51.432;-2.598;2022-10-31T15:05:20;18.90;99.90
56256;DHT22;57229;51.432;-2.598;2022-10-31T15:08:05;18.90;99.90
56256;DHT22;57229;51.432;-2.598;2022-10-31T15:10:32;18.90;99.90
56256;DHT22;57229;51.432;-2.598;2022-10-31T15:13:17;18.80;99.90
56256;DHT22;57229;51.432;-2.598;2022-10-31T15:15:44;18.80;99.90
56256;DHT22;57229;51.432;-2.598;2022-10-31T15:18:19;18.80;99.90
56256;DHT22;57229;51.432;-2.598;2022-10-31T15:20:46;18.80;99.90
56256;DHT22;57229;51.432;-2.598;2022-10-31T15:23:17;18.80;99.90
56256;DHT22;57229;51.432;-2.598;2022-10-31T15:25:46;18.80;99.90
56256;DHT22;57229;51.432;-2.598;2022-10-31T15:28:21;18.70;99.90
56256;DHT22;57229;51.432;-2.598;2022-10-31T15:30:58;18.70;99.90
56256;DHT22;57229;51.432;-2.598;2022-10-31T15:33:32;18.70;99.90
56256;DHT22;57229;51.432;-2.598;2022-10-31T15:36:04;18.70;99.90
56256;DHT22;57229;51.432;-2.598;2022-10-31T15:38:30;18.70;99.90
56256;DHT22;57229;51.432;-2.598;2022-10-31T15:40:57;18.70;99.90
56256;DHT22;57229;51.432;-2.598;2022-10-31T15:43:24;18.60;99.90
56256;DHT22;57229;51.432;-2.598;2022-10-31T15:45:51;18.70;99.90
56256;DHT22;57229;51.432;-2.598;2022-10-31T15:48:21;18.60;99.90
56256;DHT22;57229;51.432;-2.598;2022-10-31T15:50:56;18.60;99.90
56256;DHT22;57229;51.432;-2.598;2022-10-31T15:53:26;18.60;99.90
56256;DHT22;57229;51.432;-2.598;2022-10-31T15:55:56;18.60;99.90
56256;DHT22;57229;51.432;-2.598;2022-10-31T15:58:22;18.60;99.90
56256;DHT22;57229;51.432;-2.598;2022-10-31T16:01:00;18.50;99.90
56256;DHT22;57229;51.432;-2.598;2022-10-31T16:03:29;18.50;99.90
56256;DHT22;57229;51.432;-2.598;2022-10-31T16:06:00;18.50;99.90
56256;DHT22;57229;51.432;-2.598;2022-10-31T16:11:17;18.40;99.90
56256;DHT22;57229;51.432;-2.598;2022-10-31T16:16:21;18.40;99.90
56256;DHT22;57229;51.432;-2.598;2022-10-31T16:18:49;18.40;99.90
56256;DHT22;57229;51.432;-2.598;2022-10-31T16:21:24;18.40;99.90
56256;DHT22;57229;51.432;-2.598;2022-10-31T16:23:55;18.40;99.90
56256;DHT22;57229;51.432;-2.598;2022-10-31T16:26:21;18.40;99.90
56256;DHT22;57229;51.432;-2.598;2022-10-31T16:28:55;18.40;99.90
56256;DHT22;57229;51.432;-2.598;2022-10-31T16:31:38;18.30;99.90
56256;DHT22;57229;51.432;-2.598;2022-10-31T16:34:17;18.30;99.90
56256;DHT22;57229;51.432;-2.598;2022-10-31T16:36:43;18.30;99.90
56256;DHT22;57229;51.432;-2.598;2022-10-31T16:39:09;18.30;99.90
56256;DHT22;57229;51.432;-2.598;2022-10-31T16:41:38;18.30;99.90
56256;DHT22;57229;51.432;-2.598;2022-10-31T16:44:12;18.30;99.90
56256;DHT22;57229;51.432;-2.598;2022-10-31T16:46:39;18.30;99.90
56256;DHT22;57229;51.432;-2.598;2022-10-31T16:49:07;18.30;99.90
56256;DHT22;57229;51.432;-2.598;2022-10-31T16:51:33;18.20;99.90
56256;DHT22;57229;51.432;-2.598;2022-10-31T16:53:58;18.20;99.90
56256;DHT22;57229;51.432;-2.598;2022-10-31T16:56:28;18.20;99.90
56256;DHT22;57229;51.432;-2.598;2022-10-31T16:58:55;18.20;99.90
56256;DHT22;57229;51.432;-2.598;2022-10-31T17:01:21;18.20;99.90
56256;DHT22;57229;51.432;-2.598;2022-10-31T17:03:47;18.20;99.90
56256;DHT22;57229;51.432;-2.598;2022-10-31T17:06:13;18.20;99.90
56256;DHT22;57229;51.432;-2.598;2022-10-31T17:08:39;18.20;99.90
56256;DHT22;57229;51.432;-2.598;2022-10-31T17:11:05;18.20;99.90
56256;DHT22;57229;51.432;-2.598;2022-10-31T17:13:33;18.20;99.90
56256;DHT22;57229;51.432;-2.598;2022-10-31T17:16:00;18.20;99.90
56256;DHT22;57229;51.432;-2.598;2022-10-31T17:18:26;18.20;99.90
56256;DHT22;57229;51.432;-2.598;2022-10-31T17:21:00;18.20;99.90
56256;DHT22;57229;51.432;-2.598;2022-10-31T17:23:27;18.20;99.90
56256;DHT22;57229;51.432;-2.598;2022-10-31T17:25:53;18.10;99.90
56256;DHT22;57229;51.432;-2.598;2022-10-31T17:28:19;18.10;99.90
56256;DHT22;57229;51.432;-2.598;2022-10-31T17:30:45;18.10;99.90
56256;DHT22;57229;51.432;-2.598;2022-10-31T17:33:13;18.10;99.90
56256;DHT22;57229;51.432;-2.598;2022-10-31T17:35:42;18.10;99.90
56256;DHT22;57229;51.432;-2.598;2022-10-31T17:38:09;18.10;99.90
56256;DHT22;57229;51.432;-2.598;2022-10-31T17:40:37;18.10;99.90
56256;DHT22;57229;51.432;-2.598;2022-10-31T17:43:04;18.10;99.90
56256;DHT22;57229;51.432;-2.598;2022-10-31T17:45:34;18.20;99.90
56256;DHT22;57229;51.432;-2.598;2022-10-31T17:48:20;18.10;99.90
56256;DHT22;57229;51.432;-2.598;2022-10-31T17:50:46;18.10;99.90
56256;DHT22;57229;51.432;-2.598;2022-10-31T17:53:13;18.10;99.90
56256;DHT22;57229;51.432;-2.598;2022-10-31T17:55:39;18.10;99.90
56256;DHT22;57229;51.432;-2.598;2022-10-31T18:01:24;18.10;99.90
56256;DHT22;57229;51.432;-2.598;2022-10-31T18:03:50;18.10;99.90
56256;DHT22;57229;51.432;-2.598;2022-10-31T18:06:17;18.10;99.90
56256;DHT22;57229;51.432;-2.598;2022-10-31T18:08:43;18.10;99.90
56256;DHT22;57229;51.432;-2.598;2022-10-31T18:11:19;18.00;99.90
56256;DHT22;57229;51.432;-2.598;2022-10-31T18:13:46;18.10;99.90
56256;DHT22;57229;51.432;-2.598;2022-10-31T18:16:17;18.10;99.90
56256;DHT22;57229;51.432;-2.598;2022-10-31T18:19:11;18.10;99.90
56256;DHT22;57229;51.432;-2.598;2022-10-31T18:21:37;18.10;99.90
56256;DHT22;57229;51.432;-2.598;2022-10-31T18:24:02;18.10;99.90
56256;DHT22;57229;51.432;-2.598;2022-10-31T18:26:28;18.10;99.90
56256;DHT22;57229;51.432;-2.598;2022-10-31T18:28:55;18.00;99.90
56256;DHT22;57229;51.432;-2.598;2022-10-31T18:31:46;18.10;99.90
56256;DHT22;57229;51.432;-2.598;2022-10-31T18:34:14;18.00;99.90
56256;DHT22;57229;51.432;-2.598;2022-10-31T18:36:40;18.00;99.90
56256;DHT22;57229;51.432;-2.598;2022-10-31T18:39:09;18.00;99.90
56256;DHT22;57229;51.432;-2.598;2022-10-31T18:41:39;18.00;99.90